Time;durP1;ratioP1;P1;durP2;ratioP2;P2;SDS_P1;SDS_P2;PMS_P1;PMS_P2;Temp;Humidity;BMP_temperature;BMP_pressure;BME280_temperature;BME280_humidity;BME280_pressure;Samples;Min_cycle;Max_cycle;Signal;HPM_P1;HPM_P2
2022/06/23 00:03:59;;;;;;;11.88;8.40;;;14.60;1.00;;;;;;10319991;28;20228;-79
2022/06/23 00:09:29;;;;;;;13.95;8.13;;;14.60;1.00;;;;;;10303069;28;20204;-78
2022/06/23 00:15:14;;;;;;;12.80;7.72;;;14.60;1.00;;;;;;10302471;28;20260;-79
2022/06/23 00:20:44;;;;;;;14.55;6.90;;;14.50;1.00;;;;;;10344757;28;20246;-78
2022/06/23 00:26:11;;;;;;;10.68;6.18;;;14.40;1.00;;;;;;10292484;28;20205;-78
2022/06/23 00:31:40;;;;;;;9.35;6.43;;;14.30;1.00;;;;;;10254360;28;20317;-79
2022/06/23 00:37:06;;;;;;;11.88;6.82;;;14.20;1.00;;;;;;10318450;28;20215;-78
2022/06/23 00:42:55;;;;;;;11.90;6.00;;;14.20;3.90;;;;;;10304802;28;20535;-78
2022/06/23 00:48:42;;;;;;;11.93;6.07;;;14.10;7.20;;;;;;10304869;28;20501;-86
2022/06/23 00:54:23;;;;;;;7.85;5.20;;;14.00;16.80;;;;;;10275059;28;20205;-82
2022/06/23 00:59:53;;;;;;;6.97;5.35;;;13.90;17.50;;;;;;10290988;28;20201;-86
2022/06/23 01:05:35;;;;;;;7.60;5.47;;;13.90;20.40;;;;;;10317743;28;20294;-83
2022/06/23 01:11:19;;;;;;;9.02;5.38;;;13.90;17.30;;;;;;10318212;28;20247;-80
2022/06/23 01:16:45;;;;;;;11.80;5.70;;;13.80;13.00;;;;;;10318152;28;20192;-83
2022/06/23 01:22:37;;;;;;;10.73;5.60;;;13.80;16.80;;;;;;10287112;28;20529;-81
2022/06/23 01:28:13;;;;;;;9.25;6.30;;;13.60;21.80;;;;;;10277490;28;20201;-84
2022/06/23 01:33:45;;;;;;;8.45;6.18;;;13.60;25.90;;;;;;10299734;28;20236;-83
2022/06/23 01:39:21;;;;;;;9.23;5.65;;;13.50;14.90;;;;;;10303061;28;20192;-85
2022/06/23 01:45:02;;;;;;;9.80;6.30;;;13.50;25.00;;;;;;10248279;29;20236;-84
2022/06/23 01:50:36;;;;;;;6.78;5.25;;;13.50;29.10;;;;;;10267691;28;20213;-82
2022/06/23 01:56:31;;;;;;;9.45;5.57;;;13.50;42.00;;;;;;10316712;28;20235;-83
2022/06/23 02:02:10;;;;;;;8.38;5.03;;;13.50;37.60;;;;;;10317050;28;20518;-83
2022/06/23 02:07:43;;;;;;;7.22;5.13;;;13.40;43.40;;;;;;10310028;28;20201;-84
2022/06/23 02:13:17;;;;;;;9.30;5.47;;;13.30;45.60;;;;;;10314993;28;20203;-82
2022/06/23 02:19:04;;;;;;;8.00;5.22;;;13.20;26.00;;;;;;10310676;28;20190;-84
2022/06/23 02:24:44;;;;;;;7.22;5.00;;;13.10;20.80;;;;;;10117517;29;20236;-82
2022/06/23 02:30:10;;;;;;;6.65;4.65;;;13.00;20.30;;;;;;10115174;29;20262;-82
2022/06/23 02:35:43;;;;;;;7.10;5.05;;;12.80;17.70;;;;;;10115664;29;20429;-82
2022/06/23 02:41:19;;;;;;;8.27;5.28;;;12.80;28.80;;;;;;10099263;29;20301;-81
2022/06/23 02:47:12;;;;;;;9.35;5.47;;;12.90;45.30;;;;;;10105064;29;20432;-83
2022/06/23 02:52:38;;;;;;;8.90;5.93;;;13.00;48.10;;;;;;10116380;29;20212;-80
2022/06/23 03:03:38;;;;;;;8.15;5.88;;;13.10;59.80;;;;;;10276542;28;20298;-84
2022/06/23 03:09:22;;;;;;;9.55;6.15;;;13.10;53.40;;;;;;10321851;28;20202;-84
2022/06/23 03:14:50;;;;;;;9.02;5.70;;;13.20;53.00;;;;;;10309231;28;20231;-83
2022/06/23 03:20:14;;;;;;;9.77;6.05;;;13.20;50.10;;;;;;10326951;28;20198;-79
2022/06/23 03:26:17;;;;;;;8.43;6.00;;;13.20;55.00;;;;;;10317730;28;20244;-79
2022/06/23 03:31:49;;;;;;;8.88;6.10;;;13.30;67.30;;;;;;10285832;28;20236;-83
2022/06/23 03:37:36;;;;;;;9.43;6.20;;;13.40;74.70;;;;;;10293786;28;20243;-80
2022/06/23 03:43:12;;;;;;;10.25;6.45;;;13.50;79.80;;;;;;10303657;28;20527;-80
2022/06/23 03:48:51;;;;;;;9.85;5.85;;;13.70;81.60;;;;;;10290709;28;20209;-83
2022/06/23 03:54:45;;;;;;;6.53;5.25;;;13.70;77.50;;;;;;10305493;28;20213;-80
2022/06/23 04:00:35;;;;;;;9.23;5.43;;;13.70;71.10;;;;;;10321018;28;20557;-80
2022/06/23 04:05:56;;;;;;;8.40;4.90;;;13.70;75.80;;;;;;10306141;28;20304;-82
2022/06/23 04:17:17;;;;;;;6.20;4.93;;;13.90;88.70;;;;;;10303597;28;20203;-81
2022/06/23 04:22:52;;;;;;;6.55;4.68;;;14.10;92.80;;;;;;10282167;28;20229;-84
2022/06/23 04:28:26;;;;;;;6.00;4.80;;;14.30;99.90;;;;;;10318146;28;20203;-82
2022/06/23 04:33:48;;;;;;;6.80;4.80;;;14.40;99.40;;;;;;10319709;28;20310;-81
2022/06/23 04:39:40;;;;;;;9.00;4.63;;;14.60;98.90;;;;;;10289118;28;20208;-81
2022/06/23 04:45:29;;;;;;;6.50;4.28;;;14.80;94.10;;;;;;10264235;29;20248;-85
2022/06/23 04:51:01;;;;;;;6.90;4.40;;;14.90;93.10;;;;;;10198255;29;20518;-85
2022/06/23 04:56:41;;;;;;;11.45;4.88;;;15.10;93.80;;;;;;10206329;29;20218;-80
2022/06/23 05:02:22;;;;;;;14.10;6.63;;;15.20;72.20;;;;;;10234725;29;20222;-79
2022/06/23 05:07:54;;;;;;;5.95;4.68;;;15.30;59.40;;;;;;10232833;29;20522;-79
2022/06/23 05:13:36;;;;;;;6.70;4.57;;;15.50;54.30;;;;;;10257421;29;20211;-78
2022/06/23 05:19:05;;;;;;;4.28;3.80;;;15.50;51.30;;;;;;10273956;29;20221;-79
2022/06/23 05:24:36;;;;;;;4.50;3.90;;;15.80;45.50;;;;;;10257327;28;20424;-79
2022/06/23 05:30:26;;;;;;;4.30;3.45;;;16.00;28.00;;;;;;10302804;28;20396;-80
2022/06/23 05:35:56;;;;;;;5.22;3.83;;;16.10;23.80;;;;;;10246195;29;20272;-81
2022/06/23 05:41:23;;;;;;;4.40;3.80;;;16.40;1.00;;;;;;10282802;28;20481;-79
2022/06/23 05:46:47;;;;;;;6.38;3.60;;;16.50;1.00;;;;;;10301858;28;20204;-79
2022/06/23 05:52:19;;;;;;;4.75;3.05;;;16.70;1.00;;;;;;10301583;28;20227;-79
2022/06/23 05:57:55;;;;;;;4.70;3.17;;;16.90;1.00;;;;;;10316112;28;20508;-79
2022/06/23 06:03:21;;;;;;;7.57;3.78;;;17.10;1.00;;;;;;10315736;28;20245;-78
2022/06/23 06:14:33;;;;;;;6.18;3.55;;;17.70;1.00;;;;;;10307102;28;20205;-81
2022/06/23 06:19:57;;;;;;;5.88;3.13;;;17.90;1.00;;;;;;10304348;28;20210;-79
2022/06/23 06:25:25;;;;;;;2.88;2.50;;;18.10;1.00;;;;;;10273443;28;20238;-79
2022/06/23 06:31:39;;;;;;;3.42;2.22;;;18.30;1.00;;;;;;10300387;28;20229;-79
2022/06/23 06:37:01;;;;;;;3.80;2.22;;;18.70;1.00;;;;;;10139707;29;20500;-79
2022/06/23 06:42:36;;;;;;;2.88;2.30;;;19.20;1.00;;;;;;10153156;29;20228;-85
2022/06/23 06:47:58;;;;;;;3.58;2.13;;;19.80;1.00;;;;;;10153646;29;20202;-83
2022/06/23 06:53:24;;;;;;;2.95;1.70;;;;;;;;;;10153131;29;20213;-84
2022/06/23 06:59:01;;;;;;;6.22;2.03;;;21.30;1.00;;;;;;10155485;29;20209;-84
2022/06/23 07:04:38;;;;;;;2.83;1.77;;;22.00;1.00;;;;;;10155266;29;20302;-80
2022/06/23 07:10:26;;;;;;;4.03;2.10;;;22.70;1.00;;;;;;10228073;28;20407;-80
2022/06/23 07:16:14;;;;;;;3.00;2.15;;;23.10;99.90;;;;;;10301574;28;20249;-82
2022/06/23 07:22:05;;;;;;;3.17;1.92;;;23.60;99.90;;;;;;10310138;28;20191;-83
2022/06/23 07:28:03;;;;;;;3.90;2.00;;;24.00;99.90;;;;;;10301360;28;20198;-79
2022/06/23 07:33:37;;;;;;;3.92;2.03;;;24.40;46.80;;;;;;10294862;28;20549;-80
2022/06/23 07:39:08;;;;;;;4.97;2.08;;;24.80;14.50;;;;;;10291961;28;20199;-81
2022/06/23 07:44:45;;;;;;;5.85;2.20;;;25.30;1.00;;;;;;10310898;28;20280;-82
2022/06/23 07:50:07;;;;;;;3.97;1.75;;;25.50;1.00;;;;;;10290430;28;20202;-79
2022/06/23 07:55:40;;;;;;;3.63;2.10;;;25.70;1.00;;;;;;10293180;28;20199;-80
2022/06/23 08:01:17;;;;;;;2.83;2.10;;;25.90;1.00;;;;;;10267153;28;20195;-85
2022/06/23 08:06:39;;;;;;;4.88;2.25;;;26.40;1.00;;;;;;10295344;28;20230;-80
2022/06/23 08:17:49;;;;;;;7.47;4.20;;;27.10;1.00;;;;;;10284353;28;20217;-80
2022/06/23 08:23:12;;;;;;;8.23;2.33;;;27.50;1.00;;;;;;10330301;28;20222;-84
2022/06/23 08:28:34;;;;;;;2.75;2.10;;;27.60;1.00;;;;;;10301105;28;20198;-82
2022/06/23 08:33:59;;;;;;;2.60;1.80;;;27.90;1.00;;;;;;10314069;28;20234;-80
2022/06/23 08:39:28;;;;;;;5.05;1.85;;;28.10;1.00;;;;;;10283462;28;20234;-79
2022/06/23 08:45:18;;;;;;;3.97;1.90;;;28.40;1.00;;;;;;10282356;28;20458;-79
2022/06/23 08:50:46;;;;;;;2.55;1.98;;;28.60;1.00;;;;;;10313032;28;20498;-80
2022/06/23 08:56:15;;;;;;;3.00;1.80;;;28.90;1.00;;;;;;10281578;28;20290;-80
2022/06/23 09:02:07;;;;;;;12.05;2.33;;;29.00;1.00;;;;;;10313214;28;20197;-78
2022/06/23 09:07:42;;;;;;;3.67;1.70;;;29.10;1.00;;;;;;10210678;29;20223;-81
2022/06/23 09:13:18;;;;;;;6.07;2.25;;;29.10;1.00;;;;;;10228253;29;20238;-78
2022/06/23 09:19:09;;;;;;;3.58;2.53;;;29.10;1.00;;;;;;10187665;29;20207;-83
2022/06/23 09:24:47;;;;;;;2.47;1.75;;;29.10;1.00;;;;;;10184886;29;20252;-77
2022/06/23 09:30:32;;;;;;;2.35;1.70;;;29.20;1.00;;;;;;10187881;29;20259;-78
2022/06/23 09:35:54;;;;;;;3.38;1.90;;;29.10;1.00;;;;;;10185069;29;20464;-78
2022/06/23 09:41:46;;;;;;;4.40;2.05;;;29.50;1.00;;;;;;10192619;29;20316;-80
2022/06/23 09:47:26;;;;;;;1.88;1.55;;;29.50;1.00;;;;;;10256626;29;20282;-79
2022/06/23 09:53:09;;;;;;;3.63;1.73;;;29.70;1.00;;;;;;10256732;29;20506;-78
2022/06/23 09:58:51;;;;;;;2.55;1.67;;;30.00;1.00;;;;;;10268931;29;20190;-78
2022/06/23 10:04:31;;;;;;;6.50;2.40;;;30.20;1.00;;;;;;10281735;28;20229;-79
2022/06/23 10:10:16;;;;;;;4.05;2.15;;;30.50;1.00;;;;;;10293637;28;20540;-86
2022/06/23 10:16:25;;;;;;;2.65;1.50;;;30.60;1.00;;;;;;10288315;28;20615;-77
2022/06/23 10:22:05;;;;;;;2.00;1.40;;;30.40;1.00;;;;;;10146633;29;20204;-77
2022/06/23 10:27:49;;;;;;;6.53;2.05;;;30.50;1.00;;;;;;10118629;29;20724;-76
2022/06/23 10:33:38;;;;;;;4.03;2.03;;;30.80;1.00;;;;;;10144311;29;20497;-78
2022/06/23 10:39:32;;;;;;;4.38;1.75;;;30.90;1.00;;;;;;10080818;29;20293;-78
2022/06/23 10:45:00;;;;;;;4.40;1.88;;;;;;;;;;10123781;29;20241;-78
2022/06/23 10:50:21;;;;;;;1.70;1.50;;;31.00;1.00;;;;;;10108454;29;20216;-77
2022/06/23 10:56:44;;;;;;;5.30;1.63;;;30.90;1.00;;;;;;10149518;29;20286;-80
2022/06/23 11:02:18;;;;;;;5.10;3.78;;;31.10;1.00;;;;;;10147317;29;20430;-79
2022/06/23 11:08:17;;;;;;;5.57;1.80;;;31.00;1.00;;;;;;10127640;29;20449;-77
2022/06/23 11:13:56;;;;;;;2.55;1.90;;;29.90;1.00;;;;;;10143871;29;20480;-76
2022/06/23 11:25:50;;;;;;;3.42;1.58;;;30.60;1.00;;;;;;10133147;29;20436;-78
2022/06/23 11:31:11;;;;;;;2.85;1.70;;;30.60;1.00;;;;;;10155691;29;20490;-80
2022/06/23 11:36:45;;;;;;;3.35;1.83;;;31.00;1.00;;;;;;10219544;28;20207;-77
2022/06/23 11:42:35;;;;;;;3.80;1.92;;;31.40;1.00;;;;;;10289845;28;20195;-78
2022/06/23 11:54:19;;;;;;;5.32;3.45;;;31.50;1.00;;;;;;10287946;28;20206;-78
2022/06/23 12:00:05;;;;;;;3.25;1.70;;;30.70;1.00;;;;;;10285993;28;20207;-78
2022/06/23 12:05:50;;;;;;;2.38;1.50;;;30.70;1.00;;;;;;10270543;28;20317;-76
2022/06/23 12:11:11;;;;;;;3.50;2.40;;;30.80;1.00;;;;;;10288261;28;20198;-78
2022/06/23 12:16:39;;;;;;;2.42;1.75;;;31.00;1.00;;;;;;10297886;28;20213;-77
2022/06/23 12:22:18;;;;;;;4.20;1.73;;;31.20;1.00;;;;;;10285996;28;20195;-78
2022/06/23 12:27:56;;;;;;;3.50;1.98;;;31.20;1.00;;;;;;10293610;28;20195;-80
2022/06/23 12:33:38;;;;;;;1.95;1.50;;;31.20;1.00;;;;;;10321554;28;20432;-79
2022/06/23 12:39:08;;;;;;;1.58;1.40;;;31.30;1.00;;;;;;10320267;28;20512;-83
2022/06/23 12:44:51;;;;;;;2.03;1.80;;;31.50;1.00;;;;;;10315061;28;20237;-78
2022/06/23 12:50:50;;;;;;;1.88;1.60;;;30.60;1.00;;;;;;10327593;28;20194;-79
2022/06/23 12:56:12;;;;;;;4.15;1.90;;;30.20;1.00;;;;;;10300805;28;20237;-82
2022/06/23 13:01:44;;;;;;;3.25;1.65;;;30.10;1.00;;;;;;10304559;28;20204;-80
2022/06/23 13:07:15;;;;;;;5.10;1.88;;;29.60;1.00;;;;;;10319692;28;20226;-80
2022/06/23 13:12:59;;;;;;;3.42;2.22;;;29.30;1.00;;;;;;10315054;28;20203;-79
2022/06/23 13:18:31;;;;;;;6.15;1.90;;;29.70;1.00;;;;;;10316262;28;20429;-80
2022/06/23 13:24:04;;;;;;;2.53;1.75;;;30.20;1.00;;;;;;10296857;28;20262;-80
2022/06/23 13:29:35;;;;;;;4.82;1.85;;;29.90;1.00;;;;;;10327093;28;20195;-79
2022/06/23 13:35:19;;;;;;;4.53;1.88;;;30.00;1.00;;;;;;10305292;28;20194;-80
2022/06/23 13:40:55;;;;;;;2.70;1.80;;;30.40;1.00;;;;;;10317196;28;20255;-81
2022/06/23 13:46:19;;;;;;;2.13;1.70;;;30.40;1.00;;;;;;10329217;28;20226;-81
2022/06/23 13:51:49;;;;;;;4.25;1.67;;;30.20;1.00;;;;;;10295405;28;20222;-87
2022/06/23 13:57:22;;;;;;;4.35;1.95;;;29.70;1.00;;;;;;10300376;28;20190;-85
2022/06/23 14:02:53;;;;;;;2.75;2.30;;;29.30;1.00;;;;;;10328281;28;20252;-85
2022/06/23 14:08:19;;;;;;;3.05;1.95;;;29.10;1.00;;;;;;10329260;28;20504;-80
2022/06/23 14:14:02;;;;;;;10.65;6.13;;;29.30;1.00;;;;;;10318708;28;20204;-83
2022/06/23 14:19:46;;;;;;;7.60;2.85;;;29.40;1.00;;;;;;10317845;28;20190;-85
2022/06/23 14:25:39;;;;;;;3.80;1.73;;;29.40;1.00;;;;;;10301494;28;20219;-84
2022/06/23 14:31:27;;;;;;;3.15;2.13;;;29.20;1.00;;;;;;10279804;28;20246;-81
2022/06/23 14:37:03;;;;;;;4.68;2.67;;;29.10;1.00;;;;;;10282573;28;20381;-80
2022/06/23 14:42:43;;;;;;;4.43;2.63;;;28.90;1.00;;;;;;10296626;28;20205;-80
2022/06/23 14:48:47;;;;;;;2.05;1.85;;;28.80;1.00;;;;;;10336027;28;20402;-84
2022/06/23 14:54:37;;;;;;;1.90;1.45;;;28.60;1.00;;;;;;10299035;28;20273;-86
2022/06/23 15:00:11;;;;;;;4.10;2.17;;;28.40;1.00;;;;;;10306145;28;20206;-75
2022/06/23 15:05:39;;;;;;;2.75;1.70;;;28.30;1.00;;;;;;10317017;28;20229;-86
2022/06/23 15:11:12;;;;;;;5.60;2.20;;;28.50;1.00;;;;;;10312962;28;20194;-84
2022/06/23 15:16:49;;;;;;;4.57;3.30;;;28.40;1.00;;;;;;10328943;28;20228;-86
2022/06/23 15:28:51;;;;;;;5.00;2.70;;;27.80;1.00;;;;;;10313570;28;20214;-88
2022/06/23 15:34:26;;;;;;;3.97;3.00;;;27.30;31.30;;;;;;10302665;28;20234;-78
2022/06/23 15:40:36;;;;;;;3.85;3.13;;;27.00;99.90;;;;;;10302533;28;20199;-79
2022/06/23 15:46:00;;;;;;;4.47;2.92;;;26.60;1.00;;;;;;10348120;28;20433;-78
2022/06/23 15:51:42;;;;;;;6.75;3.60;;;26.50;1.00;;;;;;10318585;28;20198;-77
2022/06/23 15:57:21;;;;;;;5.30;3.60;;;26.50;1.00;;;;;;10326694;28;20278;-76
2022/06/23 16:02:50;;;;;;;7.55;3.80;;;26.40;99.90;;;;;;10275059;29;20191;-79
2022/06/23 16:08:12;;;;;;;6.80;3.30;;;26.20;99.90;;;;;;10325169;28;20194;-80
2022/06/23 16:14:04;;;;;;;5.10;3.22;;;26.20;99.90;;;;;;10326649;28;20238;-79
2022/06/23 16:19:32;;;;;;;5.10;3.45;;;26.20;99.90;;;;;;10317892;28;20191;-80
2022/06/23 16:24:58;;;;;;;10.40;3.92;;;26.00;99.90;;;;;;10309737;28;20242;-78
2022/06/23 16:30:35;;;;;;;4.28;3.30;;;25.60;1.00;;;;;;10338112;28;20225;-78
2022/06/23 16:36:19;;;;;;;3.95;3.17;;;25.50;99.90;;;;;;10360543;28;20194;-79
2022/06/23 16:41:52;;;;;;;8.75;4.10;;;25.30;1.00;;;;;;10309009;28;20206;-78
2022/06/23 16:47:23;;;;;;;6.07;4.03;;;25.20;1.00;;;;;;10349679;28;20226;-79
2022/06/23 16:52:54;;;;;;;6.05;4.07;;;25.10;99.90;;;;;;10263507;29;20211;-78
2022/06/23 16:58:36;;;;;;;6.53;3.50;;;25.00;99.90;;;;;;10265318;28;20209;-87
2022/06/23 17:04:03;;;;;;;4.82;3.75;;;25.00;1.00;;;;;;10321995;28;20222;-79
2022/06/23 17:09:33;;;;;;;5.55;3.65;;;25.00;1.00;;;;;;10322110;28;20269;-78
2022/06/23 17:15:04;;;;;;;5.18;3.00;;;24.80;1.00;;;;;;10264670;28;20195;-79
2022/06/23 17:20:31;;;;;;;6.55;3.47;;;24.80;99.90;;;;;;10277442;28;20250;-78
2022/06/23 17:26:00;;;;;;;7.10;4.68;;;24.70;99.90;;;;;;10290113;28;20223;-83
2022/06/23 17:31:29;;;;;;;4.38;3.78;;;24.60;1.00;;;;;;10290450;28;20405;-82
2022/06/23 17:36:57;;;;;;;6.78;4.93;;;24.50;1.00;;;;;;10319677;28;20202;-77
2022/06/23 17:48:15;;;;;;;6.78;4.63;;;24.20;1.00;;;;;;10304897;28;20237;-82
2022/06/23 17:53:47;;;;;;;4.95;4.15;;;24.10;1.00;;;;;;10320494;28;20191;-93
2022/06/23 17:59:16;;;;;;;7.78;4.38;;;24.00;1.00;;;;;;10303316;28;20203;-81
2022/06/23 18:04:42;;;;;;;5.85;3.65;;;23.90;1.00;;;;;;10323397;28;20269;-94
2022/06/23 18:10:29;;;;;;;5.90;3.95;;;23.70;1.00;;;;;;10319104;28;20494;-83
2022/06/23 18:16:06;;;;;;;6.18;4.35;;;23.60;1.00;;;;;;10305477;28;20198;-82
2022/06/23 18:21:47;;;;;;;6.07;3.78;;;23.30;1.00;;;;;;10326625;28;20214;-89
2022/06/23 18:27:35;;;;;;;5.32;3.92;;;23.10;1.00;;;;;;10317849;28;20218;-89
2022/06/23 18:33:09;;;;;;;7.50;4.97;;;23.00;99.90;;;;;;10302779;28;20230;-83
2022/06/23 18:38:42;;;;;;;7.13;4.72;;;22.90;1.00;;;;;;10299383;28;20254;-89
2022/06/23 18:44:34;;;;;;;7.65;4.60;;;22.70;99.90;;;;;;10290606;28;20222;-87
2022/06/23 18:50:16;;;;;;;8.45;3.92;;;22.50;99.90;;;;;;10355947;28;20496;-93
2022/06/23 18:55:53;;;;;;;6.40;4.13;;;22.20;99.90;;;;;;10315623;28;20202;-91
2022/06/23 19:01:29;;;;;;;5.60;3.70;;;22.00;99.90;;;;;;10338445;28;20197;-79
2022/06/23 19:07:05;;;;;;;5.38;3.60;;;21.70;1.00;;;;;;10327397;28;20230;-94
2022/06/23 19:12:37;;;;;;;4.95;3.90;;;21.50;1.00;;;;;;10321507;28;20419;-77
2022/06/23 19:18:39;;;;;;;8.43;4.32;;;21.40;99.90;;;;;;10316391;28;20197;-93
2022/06/23 19:24:19;;;;;;;7.30;5.20;;;21.30;1.00;;;;;;10176433;29;20247;-83
2022/06/23 19:30:01;;;;;;;9.05;6.10;;;21.10;99.90;;;;;;10177177;29;20403;-91
2022/06/23 19:35:26;;;;;;;7.78;5.47;;;21.00;99.90;;;;;;10182220;29;20212;-91
2022/06/23 19:41:21;;;;;;;10.65;5.25;;;20.80;99.90;;;;;;10176370;29;20520;-81
2022/06/23 19:46:48;;;;;;;9.30;5.80;;;20.70;99.90;;;;;;10188582;29;20518;-83
2022/06/23 19:52:28;;;;;;;7.28;5.38;;;20.60;1.00;;;;;;10186088;29;20211;-82
2022/06/23 19:58:08;;;;;;;7.97;5.55;;;20.50;1.00;;;;;;10192000;28;20207;-87
2022/06/23 20:04:09;;;;;;;7.88;5.85;;;20.30;1.00;;;;;;10321375;28;20202;-79
2022/06/23 20:09:37;;;;;;;8.70;6.07;;;20.20;1.00;;;;;;10333791;28;20241;-79
2022/06/23 20:15:14;;;;;;;7.93;5.32;;;20.10;1.00;;;;;;10318291;28;20202;-95
2022/06/23 20:20:45;;;;;;;6.15;4.80;;;20.00;1.00;;;;;;10321273;28;20389;-92
2022/06/23 20:26:34;;;;;;;16.35;7.22;;;19.90;99.90;;;;;;10317944;28;20222;-92
2022/06/23 20:32:00;;;;;;;9.68;6.38;;;19.80;99.90;;;;;;10360470;28;20483;-79
2022/06/23 20:37:25;;;;;;;8.73;6.57;;;19.60;99.90;;;;;;10321464;28;20218;-82
2022/06/23 20:43:09;;;;;;;12.63;6.68;;;19.50;99.90;;;;;;10308251;28;20222;-79
2022/06/23 20:48:54;;;;;;;28.73;15.57;;;19.40;99.90;;;;;;10364975;28;20402;-80
2022/06/23 20:54:38;;;;;;;30.05;19.60;;;19.30;99.90;;;;;;10358857;28;20190;-86
2022/06/23 21:00:09;;;;;;;28.88;18.20;;;19.30;99.90;;;;;;10279010;29;20202;-88
2022/06/23 21:06:01;;;;;;;19.92;13.88;;;19.10;99.90;;;;;;10297176;28;20222;-88
2022/06/23 21:12:01;;;;;;;23.27;11.77;;;19.10;1.00;;;;;;10305241;28;20222;-93
2022/06/23 21:17:56;;;;;;;18.55;10.65;;;19.00;1.00;;;;;;10305072;28;20195;-81
2022/06/23 21:29:12;;;;;;;18.73;12.60;;;18.80;1.00;;;;;;10302626;28;20234;-80
2022/06/23 21:34:44;;;;;;;21.17;12.98;;;18.70;1.00;;;;;;10303499;28;20400;-82
2022/06/23 22:01:41;;;;;;;10.68;8.20;;;18.50;1.00;;;;;;10341879;28;20197;-79
2022/06/23 22:07:28;;;;;;;11.55;7.55;;;18.40;1.00;;;;;;10325031;28;20244;-84
2022/06/23 22:12:57;;;;;;;10.55;7.97;;;18.30;1.00;;;;;;10285223;28;20209;-84
2022/06/23 22:18:30;;;;;;;10.27;7.65;;;18.20;1.00;;;;;;10315555;28;20375;-83
2022/06/23 22:29:33;;;;;;;13.10;7.75;;;18.10;1.00;;;;;;10298306;28;20213;-79
2022/06/23 22:35:00;;;;;;;9.00;7.20;;;18.10;1.00;;;;;;10284745;28;20528;-84
2022/06/23 22:40:26;;;;;;;9.85;7.05;;;18.10;1.00;;;;;;10284675;28;20430;-79
2022/06/23 22:45:59;;;;;;;9.98;6.53;;;18.00;1.00;;;;;;10274951;28;20540;-82
2022/06/23 22:51:28;;;;;;;11.77;8.15;;;18.00;1.00;;;;;;10298029;28;20273;-78
2022/06/23 22:56:51;;;;;;;11.27;7.90;;;17.90;1.00;;;;;;10314725;28;20206;-81
2022/06/23 23:02:20;;;;;;;14.85;9.02;;;17.90;1.00;;;;;;10284438;28;20205;-86
2022/06/23 23:07:54;;;;;;;13.15;9.50;;;17.80;1.00;;;;;;10300223;28;20249;-84
2022/06/23 23:13:27;;;;;;;17.08;10.40;;;17.70;1.00;;;;;;10283918;28;20202;-83
2022/06/23 23:18:50;;;;;;;11.30;9.27;;;17.60;1.00;;;;;;10251171;29;20207;-85
2022/06/23 23:24:32;;;;;;;12.57;8.23;;;17.50;1.00;;;;;;10281782;28;20205;-77
2022/06/23 23:29:59;;;;;;;14.07;7.35;;;17.50;1.00;;;;;;10291969;28;20244;-93
2022/06/23 23:35:45;;;;;;;8.80;7.25;;;17.50;1.00;;;;;;10305504;28;20199;-93
2022/06/23 23:41:14;;;;;;;11.88;8.45;;;17.40;1.00;;;;;;10303144;28;20202;-93
2022/06/23 23:46:47;;;;;;;12.52;8.73;;;17.40;1.00;;;;;;10347158;28;20253;-93
2022/06/23 23:52:10;;;;;;;15.15;10.48;;;17.40;1.00;;;;;;10307933;28;20206;-93
2022/06/23 23:57:41;;;;;;;17.20;12.85;;;17.30;1.00;;;;;;10304652;28;20401;-93
